Caraubas, Brazil
Current Conditions -  °F | °C
As of 5:00 AM on Sunday 26 Oct 2014 (Local Time) from SBKG Reporting Station
Broken Clouds Broken Clouds  
Wind Chill: 20°   Ceiling: 1300
Heat Index: 20°   Visibility: 6mi
Dew Point: 20°   Wind: 6mph
Humidity: 100%   Direction: 140°SE
Pressure: 29.97"   Gusts: NA
Location:  5.79°S, 37.56°W
Report Text: SBKG 260800Z 14005KT 9999 SCT007 BKN013 20/20 Q1015
Loading
Personal Weather Stations






























Interactive Weather Map
Tropical Storm Tracking
New forecast layout! Learn more

10-Day Weather Forecast

Advertisements
Track Severe Weather on mobile